Time;durP1;ratioP1;P1;durP2;ratioP2;P2;SDS_P1;SDS_P2;PMS_P1;PMS_P2;Temp;Humidity;BMP_temperature;BMP_pressure;BME280_temperature;BME280_humidity;BME280_pressure;Samples;Min_cycle;Max_cycle;Signal;HPM_P1;HPM_P2
2021/01/01 00:01:18;;;;;;;44.63;18.33;;;;;;;;;;5037797;28;20247;-81
2021/01/01 00:04:23;;;;;;;48.27;20.47;;;;;;;;;;5043659;28;20224;-79
2021/01/01 00:07:29;;;;;;;52.27;22.63;;;;;;;;;;5038155;28;20225;-81
2021/01/01 00:10:39;;;;;;;62.77;25.50;;;;;;;;;;5050829;28;20194;-80
2021/01/01 00:13:43;;;;;;;64.00;23.47;;;;;;;;;;5061523;28;20228;-78
2021/01/01 00:16:58;;;;;;;59.53;24.83;;;;;;;;;;5057945;28;20231;-80
2021/01/01 00:20:02;;;;;;;51.53;21.77;;;;;;;;;;5039965;28;20193;-79
2021/01/01 00:23:07;;;;;;;51.33;19.40;;;;;;;;;;5054760;28;20226;-79
2021/01/01 00:26:13;;;;;;;51.13;19.97;;;;;;;;;;5049794;28;20329;-79
2021/01/01 00:29:18;;;;;;;47.83;20.03;;;;;;;;;;5041937;28;20207;-80
2021/01/01 00:32:22;;;;;;;43.47;18.47;;;;;;;;;;5053081;28;20258;-79
2021/01/01 00:35:27;;;;;;;44.80;17.17;;;;;;;;;;5051101;28;20207;-80
2021/01/01 00:38:32;;;;;;;43.27;18.20;;;;;;;;;;5052889;28;20207;-80
2021/01/01 00:41:38;;;;;;;49.50;17.73;;;;;;;;;;5028956;28;20232;-80
2021/01/01 00:44:43;;;;;;;41.77;16.97;;;;;;;;;;5040905;28;20234;-80
2021/01/01 00:47:49;;;;;;;41.77;16.33;;;;;;;;;;5041323;28;20275;-79
2021/01/01 00:50:54;;;;;;;43.67;15.80;;;;;;;;;;5038598;28;20292;-79
2021/01/01 00:54:00;;;;;;;41.37;16.93;;;;;;;;;;5039719;28;20203;-80
2021/01/01 00:57:05;;;;;;;53.70;19.70;;;;;;;;;;5048839;28;20208;-80
2021/01/01 01:00:10;;;;;;;49.00;18.30;;;;;;;;;;5051523;28;20275;-79
2021/01/01 01:03:14;;;;;;;45.57;17.83;;;;;;;;;;5038776;28;20231;-79
2021/01/01 01:06:19;;;;;;;48.90;18.17;;;;;;;;;;5034985;28;20210;-80
2021/01/01 01:09:25;;;;;;;38.90;16.50;;;;;;;;;;5043530;28;20199;-79
2021/01/01 01:12:31;;;;;;;40.60;16.17;;;;;;;;;;5024940;28;20228;-79
2021/01/01 01:15:36;;;;;;;35.43;16.17;;;;;;;;;;5037447;28;20197;-79
2021/01/01 01:18:41;;;;;;;41.13;14.87;;;;;;;;;;5052694;28;20301;-79
2021/01/01 01:21:46;;;;;;;36.53;15.93;;;;;;;;;;5074034;28;20264;-80
2021/01/01 01:24:51;;;;;;;42.87;15.80;;;;;;;;;;5070514;28;20222;-78
2021/01/01 01:27:57;;;;;;;41.83;15.27;;;;;;;;;;5054040;28;20206;-79
2021/01/01 01:31:01;;;;;;;33.20;14.80;;;;;;;;;;5040046;28;20572;-78
2021/01/01 01:34:07;;;;;;;40.63;15.20;;;;;;;;;;5051349;28;20697;-78
2021/01/01 01:37:12;;;;;;;32.93;14.50;;;;;;;;;;5034261;28;20204;-78
2021/01/01 01:40:20;;;;;;;34.60;14.97;;;;;;;;;;5061461;28;20241;-79
2021/01/01 01:43:25;;;;;;;34.43;14.80;;;;;;;;;;5046763;28;20207;-82
2021/01/01 01:46:39;;;;;;;40.97;15.80;;;;;;;;;;5043749;28;20719;-82
2021/01/01 01:49:44;;;;;;;34.90;14.33;;;;;;;;;;5044208;28;20693;-82
2021/01/01 01:52:49;;;;;;;34.43;15.23;;;;;;;;;;5050843;28;20229;-81
2021/01/01 01:55:54;;;;;;;39.77;15.80;;;;;;;;;;5039063;28;20199;-82
2021/01/01 01:59:00;;;;;;;35.07;15.27;;;;;;;;;;5037647;28;20220;-80
2021/01/01 02:02:05;;;;;;;36.33;15.20;;;;;;;;;;5049490;28;20223;-81
2021/01/01 02:05:14;;;;;;;40.83;15.97;;;;;;;;;;5049128;28;20214;-82
2021/01/01 02:08:19;;;;;;;40.17;17.33;;;;;;;;;;5049120;28;20228;-82
2021/01/01 02:11:25;;;;;;;40.50;15.63;;;;;;;;;;5056196;28;20233;-81
2021/01/01 02:14:31;;;;;;;38.80;16.07;;;;;;;;;;5029522;28;20196;-82
2021/01/01 02:17:36;;;;;;;40.53;15.50;;;;;;;;;;5036817;28;20270;-82
2021/01/01 02:20:40;;;;;;;41.20;16.30;;;;;;;;;;5040602;28;20226;-82
2021/01/01 02:23:47;;;;;;;42.20;17.40;;;;;;;;;;5031414;28;20211;-82
2021/01/01 02:26:52;;;;;;;43.30;17.07;;;;;;;;;;5034058;28;20231;-82
2021/01/01 02:29:57;;;;;;;40.70;16.87;;;;;;;;;;5018471;28;20192;-82
2021/01/01 02:33:01;;;;;;;42.23;17.07;;;;;;;;;;5043271;28;20382;-81
2021/01/01 02:36:07;;;;;;;47.90;18.93;;;;;;;;;;5051835;28;20649;-81
2021/01/01 02:39:12;;;;;;;55.53;19.70;;;;;;;;;;5050087;28;20202;-83
2021/01/01 02:42:17;;;;;;;44.33;16.97;;;;;;;;;;5042325;28;20218;-81
2021/01/01 02:45:23;;;;;;;48.57;18.53;;;;;;;;;;5047078;28;20239;-82
2021/01/01 02:48:27;;;;;;;51.80;18.33;;;;;;;;;;5040385;28;20215;-82
2021/01/01 02:51:32;;;;;;;53.50;17.90;;;;;;;;;;5039297;28;20240;-82
2021/01/01 02:54:39;;;;;;;56.27;21.27;;;;;;;;;;5037528;28;20211;-83
2021/01/01 02:57:44;;;;;;;52.10;19.57;;;;;;;;;;5031529;28;20700;-83
2021/01/01 03:00:49;;;;;;;57.60;19.50;;;;;;;;;;5040198;28;20203;-82
2021/01/01 03:03:54;;;;;;;53.27;19.20;;;;;;;;;;5057129;28;20821;-83
2021/01/01 03:06:59;;;;;;;54.30;20.13;;;;;;;;;;5065682;28;20203;-80
2021/01/01 03:10:05;;;;;;;54.90;19.90;;;;;;;;;;5069704;28;20252;-81
2021/01/01 03:13:09;;;;;;;51.23;19.70;;;;;;;;;;5067477;28;20243;-80
2021/01/01 03:16:14;;;;;;;51.47;19.30;;;;;;;;;;5056290;28;20207;-83
2021/01/01 03:19:19;;;;;;;49.37;18.60;;;;;;;;;;5048901;28;20585;-82
2021/01/01 03:22:23;;;;;;;54.23;20.23;;;;;;;;;;5052298;28;20239;-80
2021/01/01 03:25:29;;;;;;;54.20;19.43;;;;;;;;;;5049767;28;20277;-82
2021/01/01 03:28:34;;;;;;;56.30;20.07;;;;;;;;;;5037971;28;20234;-81
2021/01/01 03:31:39;;;;;;;46.33;18.33;;;;;;;;;;5048341;28;20600;-83
2021/01/01 03:34:43;;;;;;;48.30;19.67;;;;;;;;;;5037887;28;20254;-82
2021/01/01 03:37:48;;;;;;;56.87;19.90;;;;;;;;;;5054618;28;20669;-82
2021/01/01 03:40:54;;;;;;;54.13;19.70;;;;;;;;;;5051435;28;20634;-83
2021/01/01 03:43:58;;;;;;;46.77;18.30;;;;;;;;;;5041184;28;20230;-82
2021/01/01 03:47:04;;;;;;;52.77;18.97;;;;;;;;;;5044501;28;20226;-82
2021/01/01 03:50:09;;;;;;;51.93;19.17;;;;;;;;;;5049936;28;20575;-81
2021/01/01 03:53:20;;;;;;;49.77;18.60;;;;;;;;;;5066091;28;20188;-79
2021/01/01 03:56:25;;;;;;;52.30;19.27;;;;;;;;;;5040258;28;20188;-81
2021/01/01 03:59:34;;;;;;;57.33;19.27;;;;;;;;;;5067871;28;20259;-80
2021/01/01 04:02:39;;;;;;;72.37;19.87;;;;;;;;;;5053184;28;20231;-82
2021/01/01 04:05:45;;;;;;;55.37;20.10;;;;;;;;;;5062928;28;20234;-80
2021/01/01 04:08:49;;;;;;;53.80;20.27;;;;;;;;;;5061671;28;20200;-80
2021/01/01 04:11:56;;;;;;;51.77;19.60;;;;;;;;;;5070249;28;20222;-79
2021/01/01 04:15:00;;;;;;;53.13;19.30;;;;;;;;;;5056816;28;20207;-80
2021/01/01 04:18:06;;;;;;;47.93;18.60;;;;;;;;;;5031259;28;20498;-82
2021/01/01 04:21:11;;;;;;;51.10;18.43;;;;;;;;;;5048974;28;20277;-80
2021/01/01 04:24:16;;;;;;;51.07;18.73;;;;;;;;;;5053886;28;20222;-82
2021/01/01 04:27:21;;;;;;;42.73;17.27;;;;;;;;;;5046832;28;20207;-81
2021/01/01 04:30:26;;;;;;;50.40;17.80;;;;;;;;;;5050445;28;20211;-81
2021/01/01 04:33:32;;;;;;;52.07;19.20;;;;;;;;;;5064939;28;20191;-80
2021/01/01 04:36:37;;;;;;;44.03;17.23;;;;;;;;;;5047295;28;20195;-79
2021/01/01 04:44:04;;;;;;;44.47;17.57;;;;;;;;;;5058163;28;20175;-82
2021/01/01 04:47:10;;;;;;;52.80;18.67;;;;;;;;;;5052783;28;20229;-82
2021/01/01 04:50:16;;;;;;;48.87;18.47;;;;;;;;;;5062832;28;20202;-82
2021/01/01 04:53:22;;;;;;;51.13;19.60;;;;;;;;;;5045887;28;20195;-81
2021/01/01 04:56:27;;;;;;;42.90;17.87;;;;;;;;;;5048525;28;20280;-81
2021/01/01 04:59:33;;;;;;;44.70;17.67;;;;;;;;;;5059618;28;20605;-80
2021/01/01 05:02:38;;;;;;;46.50;18.90;;;;;;;;;;5060761;28;20235;-80
2021/01/01 05:05:53;;;;;;;41.33;17.30;;;;;;;;;;5063180;28;20226;-80
2021/01/01 05:08:59;;;;;;;44.83;16.33;;;;;;;;;;5060896;28;20204;-81
2021/01/01 05:12:08;;;;;;;40.83;16.13;;;;;;;;;;5041622;28;20238;-82
2021/01/01 05:15:14;;;;;;;37.97;15.77;;;;;;;;;;5043668;28;20223;-82
2021/01/01 05:18:19;;;;;;;39.57;15.57;;;;;;;;;;5036156;28;20207;-82
2021/01/01 05:21:26;;;;;;;39.87;15.63;;;;;;;;;;5046484;28;20250;-82
2021/01/01 05:24:43;;;;;;;41.90;15.33;;;;;;;;;;5054384;28;20226;-82
2021/01/01 05:27:49;;;;;;;39.40;15.07;;;;;;;;;;5059546;28;20255;-79
2021/01/01 05:30:56;;;;;;;44.07;16.30;;;;;;;;;;5060719;28;20191;-79
2021/01/01 05:34:01;;;;;;;37.20;15.00;;;;;;;;;;5049897;28;20312;-82
2021/01/01 05:37:06;;;;;;;36.93;16.03;;;;;;;;;;5038270;28;20254;-82
2021/01/01 05:40:12;;;;;;;44.50;16.33;;;;;;;;;;5035672;28;20211;-81
2021/01/01 05:43:21;;;;;;;42.23;15.83;;;;;;;;;;5041295;28;20203;-81
2021/01/01 05:46:26;;;;;;;38.33;16.07;;;;;;;;;;5041726;28;20231;-82
2021/01/01 05:49:32;;;;;;;40.60;15.67;;;;;;;;;;5042613;28;20202;-82
2021/01/01 05:52:37;;;;;;;46.73;16.33;;;;;;;;;;5046218;28;20614;-80
2021/01/01 05:55:42;;;;;;;39.23;16.30;;;;;;;;;;5038258;28;20749;-83
2021/01/01 05:58:47;;;;;;;39.10;15.17;;;;;;;;;;5045826;28;20254;-82
2021/01/01 06:01:55;;;;;;;34.90;14.67;;;;;;;;;;5034588;28;20505;-82
2021/01/01 06:05:00;;;;;;;36.67;15.17;;;;;;;;;;5056333;28;20231;-82
2021/01/01 06:08:07;;;;;;;42.83;17.13;;;;;;;;;;5052206;28;20194;-82
2021/01/01 06:11:17;;;;;;;37.33;14.93;;;;;;;;;;5051894;28;20235;-82
2021/01/01 06:14:30;;;;;;;39.47;14.67;;;;;;;;;;5055808;28;20239;-82
2021/01/01 06:17:39;;;;;;;34.53;14.30;;;;;;;;;;5039538;28;20235;-80
2021/01/01 06:20:44;;;;;;;35.50;14.73;;;;;;;;;;5018134;28;20219;-82
2021/01/01 06:23:52;;;;;;;35.63;14.70;;;;;;;;;;5046116;28;20266;-82
2021/01/01 06:26:57;;;;;;;36.27;14.10;;;;;;;;;;5046786;28;20281;-82
2021/01/01 06:30:02;;;;;;;32.50;13.57;;;;;;;;;;5055389;28;20199;-81
2021/01/01 06:33:09;;;;;;;28.07;12.63;;;;;;;;;;5051923;28;20254;-80
2021/01/01 06:36:29;;;;;;;31.10;13.33;;;;;;;;;;5054922;28;20662;-80
2021/01/01 06:39:38;;;;;;;35.20;14.23;;;;;;;;;;5063702;28;20215;-82
2021/01/01 06:42:54;;;;;;;33.03;13.63;;;;;;;;;;5030265;28;20231;-80
2021/01/01 06:45:59;;;;;;;34.03;13.63;;;;;;;;;;5033274;28;20706;-80
2021/01/01 06:49:05;;;;;;;37.67;15.20;;;;;;;;;;5055499;28;20209;-77
2021/01/01 06:52:20;;;;;;;36.10;15.03;;;;;;;;;;5075653;28;20287;-80
2021/01/01 06:55:31;;;;;;;36.23;14.87;;;;;;;;;;5047001;28;20181;-78
2021/01/01 06:58:36;;;;;;;35.30;13.90;;;;;;;;;;5058175;28;20231;-83
2021/01/01 07:01:41;;;;;;;40.77;15.70;;;;;;;;;;5048331;28;20223;-82
2021/01/01 07:04:51;;;;;;;38.47;15.20;;;;;;;;;;5021432;28;20220;-82
2021/01/01 07:07:56;;;;;;;33.10;14.73;;;;;;;;;;5046836;28;20203;-83
2021/01/01 07:11:00;;;;;;;37.17;15.00;;;;;;;;;;5046004;28;20234;-82
2021/01/01 07:14:06;;;;;;;37.10;14.17;;;;;;;;;;5029772;28;20223;-82
2021/01/01 07:17:11;;;;;;;34.83;14.73;;;;;;;;;;5052683;28;20194;-82
2021/01/01 07:20:16;;;;;;;35.13;13.20;;;;;;;;;;5044975;28;20218;-83
2021/01/01 07:23:21;;;;;;;37.47;14.90;;;;;;;;;;5045511;28;20234;-82
2021/01/01 07:26:30;;;;;;;35.73;14.03;;;;;;;;;;5039393;28;20346;-83
2021/01/01 07:29:35;;;;;;;40.33;14.30;;;;;;;;;;5047127;28;20700;-83
2021/01/01 07:32:40;;;;;;;39.77;14.10;;;;;;;;;;5036961;28;20443;-82
2021/01/01 07:35:51;;;;;;;37.30;15.10;;;;;;;;;;5050979;28;20187;-79
2021/01/01 07:39:03;;;;;;;36.07;14.60;;;;;;;;;;5050445;28;20219;-82
2021/01/01 07:42:08;;;;;;;30.17;13.03;;;;;;;;;;5047139;28;20277;-81
2021/01/01 07:45:13;;;;;;;33.50;13.53;;;;;;;;;;5039664;28;20278;-82
2021/01/01 07:48:18;;;;;;;34.63;13.17;;;;;;;;;;5039625;28;20199;-81
2021/01/01 07:51:24;;;;;;;31.27;13.60;;;;;;;;;;5047389;28;20225;-83
2021/01/01 07:54:28;;;;;;;36.93;14.90;;;;;;;;;;5045782;28;20263;-82
2021/01/01 07:57:35;;;;;;;36.60;13.57;;;;;;;;;;5055072;28;20268;-82
2021/01/01 08:00:40;;;;;;;30.03;12.40;;;;;;;;;;5041120;28;20214;-81
2021/01/01 08:03:45;;;;;;;35.73;14.73;;;;;;;;;;5028511;28;20199;-81
2021/01/01 08:06:55;;;;;;;33.63;14.10;;;;;;;;;;5048169;28;20261;-80
2021/01/01 08:10:00;;;;;;;36.80;14.63;;;;;;;;;;5042858;28;20241;-79
2021/01/01 08:13:04;;;;;;;37.03;14.90;;;;;;;;;;5036548;28;20288;-81
2021/01/01 08:16:13;;;;;;;34.40;14.17;;;;;;;;;;5043047;28;20274;-81
2021/01/01 08:19:23;;;;;;;32.87;14.43;;;;;;;;;;5031910;28;20298;-82
2021/01/01 08:22:33;;;;;;;30.63;13.27;;;;;;;;;;5055903;28;20949;-80
2021/01/01 08:25:38;;;;;;;34.87;14.27;;;;;;;;;;5053452;28;20223;-82
2021/01/01 08:28:43;;;;;;;32.73;13.60;;;;;;;;;;5060737;28;20288;-82
2021/01/01 08:31:48;;;;;;;29.20;11.60;;;;;;;;;;5052985;28;20642;-81
2021/01/01 08:34:53;;;;;;;29.47;12.13;;;;;;;;;;5056367;28;20203;-81
2021/01/01 08:37:58;;;;;;;29.23;12.63;;;;;;;;;;5046568;28;20573;-81
2021/01/01 08:41:03;;;;;;;38.17;15.13;;;;;;;;;;5057819;28;20203;-82
2021/01/01 08:44:09;;;;;;;41.50;15.80;;;;;;;;;;5044605;28;20593;-81
2021/01/01 08:47:13;;;;;;;35.37;15.37;;;;;;;;;;5049903;28;20281;-80
2021/01/01 08:50:19;;;;;;;36.87;15.83;;;;;;;;;;5049068;28;21887;-81
2021/01/01 08:53:25;;;;;;;40.40;17.37;;;;;;;;;;5049628;28;20687;-80
2021/01/01 08:56:30;;;;;;;30.30;13.73;;;;;;;;;;5039908;28;20200;-82
2021/01/01 08:59:35;;;;;;;32.27;13.47;;;;;;;;;;5045183;28;20575;-81
2021/01/01 09:02:40;;;;;;;31.83;12.87;;;;;;;;;;5042842;28;20230;-79
2021/01/01 09:05:45;;;;;;;33.03;12.43;;;;;;;;;;5061804;28;20234;-79
2021/01/01 09:09:03;;;;;;;30.90;12.57;;;;;;;;;;5067977;28;20190;-79
2021/01/01 09:12:19;;;;;;;26.97;12.03;;;;;;;;;;5060477;28;20285;-79
2021/01/01 09:15:49;;;;;;;26.87;11.53;;;;;;;;;;5060463;28;20168;-78
2021/01/01 09:18:55;;;;;;;28.47;12.97;;;;;;;;;;5050120;28;20262;-81
2021/01/01 09:22:11;;;;;;;26.03;12.03;;;;;;;;;;5046043;28;20250;-81
2021/01/01 09:25:21;;;;;;;29.57;11.50;;;;;;;;;;5046943;28;20247;-82
2021/01/01 09:28:26;;;;;;;24.80;11.70;;;;;;;;;;5041961;28;20267;-81
2021/01/01 09:31:30;;;;;;;27.93;12.07;;;;;;;;;;5056017;28;20303;-81
2021/01/01 09:34:35;;;;;;;25.07;10.93;;;;;;;;;;5055799;28;20210;-81
2021/01/01 09:37:46;;;;;;;24.00;11.10;;;;;;;;;;5047983;28;20210;-81
2021/01/01 09:40:52;;;;;;;26.93;11.53;;;;;;;;;;5052888;28;20202;-78
2021/01/01 09:43:57;;;;;;;37.13;14.87;;;;;;;;;;5052701;28;20200;-80
2021/01/01 09:47:02;;;;;;;37.40;14.97;;;;;;;;;;5040335;28;20220;-82
2021/01/01 09:50:11;;;;;;;35.60;15.33;;;;;;;;;;5040998;28;20254;-82
2021/01/01 09:53:16;;;;;;;37.13;15.00;;;;;;;;;;5044383;28;20227;-80
2021/01/01 09:56:22;;;;;;;38.73;14.93;;;;;;;;;;5051335;28;20667;-81
2021/01/01 09:59:26;;;;;;;32.23;14.03;;;;;;;;;;5054539;28;20213;-81
2021/01/01 10:02:31;;;;;;;33.87;15.73;;;;;;;;;;5042012;28;20269;-80
2021/01/01 10:05:35;;;;;;;33.70;15.00;;;;;;;;;;5042872;28;20707;-81
2021/01/01 10:08:40;;;;;;;33.47;13.50;;;;;;;;;;5039653;28;20626;-81
2021/01/01 10:11:49;;;;;;;34.43;14.10;;;;;;;;;;5040702;28;20238;-80
2021/01/01 10:14:54;;;;;;;33.37;13.53;;;;;;;;;;5042127;28;20285;-81
2021/01/01 10:17:59;;;;;;;34.27;13.83;;;;;;;;;;5038863;28;20267;-81
2021/01/01 10:21:04;;;;;;;31.23;12.90;;;;;;;;;;5052303;28;20206;-82
2021/01/01 10:24:09;;;;;;;39.03;14.23;;;;;;;;;;5019499;28;20259;-81
2021/01/01 10:27:22;;;;;;;30.20;13.77;;;;;;;;;;5044592;28;20235;-81
2021/01/01 10:30:27;;;;;;;29.63;13.20;;;;;;;;;;5053710;28;20225;-82
2021/01/01 10:33:32;;;;;;;31.67;14.23;;;;;;;;;;5042041;28;20690;-82
2021/01/01 10:36:36;;;;;;;31.17;13.93;;;;;;;;;;5059751;28;20294;-82
2021/01/01 10:39:41;;;;;;;36.10;14.47;;;;;;;;;;5028719;28;20634;-81
2021/01/01 10:42:47;;;;;;;33.50;14.10;;;;;;;;;;5032624;28;20270;-82
2021/01/01 10:45:55;;;;;;;32.53;14.23;;;;;;;;;;5036496;28;20334;-81
2021/01/01 10:49:00;;;;;;;30.33;13.47;;;;;;;;;;5039424;28;20207;-81
2021/01/01 10:52:05;;;;;;;30.00;13.43;;;;;;;;;;5033940;28;20227;-81
2021/01/01 10:55:10;;;;;;;31.67;13.50;;;;;;;;;;5028855;28;20199;-81
2021/01/01 10:58:23;;;;;;;29.80;12.90;;;;;;;;;;5047973;28;20208;-81
2021/01/01 11:01:28;;;;;;;28.43;13.03;;;;;;;;;;5038604;28;20266;-82
2021/01/01 11:04:33;;;;;;;27.10;13.13;;;;;;;;;;5048166;28;20245;-81
2021/01/01 11:07:37;;;;;;;29.33;13.73;;;;;;;;;;5052522;28;20214;-79
2021/01/01 11:10:42;;;;;;;31.00;13.83;;;;;;;;;;5060188;28;20198;-79
2021/01/01 11:13:55;;;;;;;33.57;13.83;;;;;;;;;;5063501;28;20199;-79
2021/01/01 12:21:54;;;;;;;36.93;14.87;;;;;;;;;;5045485;28;20373;-82
2021/01/01 12:24:59;;;;;;;37.53;15.33;;;;;;;;;;5033483;28;20203;-82
2021/01/01 12:28:04;;;;;;;36.17;15.13;;;;;;;;;;5052884;28;20199;-81
2021/01/01 12:31:11;;;;;;;35.53;15.80;;;;;;;;;;5042518;28;20199;-82
2021/01/01 12:34:16;;;;;;;36.63;16.70;;;;;;;;;;5047754;28;20203;-82
2021/01/01 12:37:22;;;;;;;44.87;18.10;;;;;;;;;;5055504;28;20238;-82
2021/01/01 12:40:27;;;;;;;37.53;16.57;;;;;;;;;;5052505;28;20250;-81
2021/01/01 12:43:32;;;;;;;38.43;16.00;;;;;;;;;;5048306;28;20207;-81
2021/01/01 12:46:37;;;;;;;33.07;15.50;;;;;;;;;;5058029;28;20816;-81
2021/01/01 12:49:44;;;;;;;36.97;16.80;;;;;;;;;;5033578;28;20262;-79
2021/01/01 12:52:53;;;;;;;33.10;15.80;;;;;;;;;;5049295;28;20251;-81
2021/01/01 12:55:58;;;;;;;40.03;16.40;;;;;;;;;;5053330;28;20188;-80
2021/01/01 12:59:03;;;;;;;37.13;17.23;;;;;;;;;;5040675;28;20214;-81
2021/01/01 13:02:08;;;;;;;40.17;17.33;;;;;;;;;;5043597;28;20287;-80
2021/01/01 13:05:13;;;;;;;52.67;21.23;;;;;;;;;;5047591;28;20215;-78
2021/01/01 13:08:20;;;;;;;48.00;20.60;;;;;;;;;;5037387;28;20207;-78
2021/01/01 13:11:25;;;;;;;45.73;19.50;;;;;;;;;;5045866;28;20250;-79
2021/01/01 13:14:30;;;;;;;42.63;17.60;;;;;;;;;;5055248;28;20212;-80
2021/01/01 13:17:36;;;;;;;43.20;16.70;;;;;;;;;;5060304;28;20195;-80
2021/01/01 13:20:42;;;;;;;38.87;16.27;;;;;;;;;;5059030;28;20239;-81
2021/01/01 13:23:48;;;;;;;36.77;14.93;;;;;;;;;;5067063;28;20255;-79
2021/01/01 13:26:54;;;;;;;34.03;14.60;;;;;;;;;;5061128;28;20235;-79
2021/01/01 13:29:59;;;;;;;36.67;14.97;;;;;;;;;;5057053;28;20194;-80
2021/01/01 13:33:04;;;;;;;34.93;14.40;;;;;;;;;;5063855;28;20322;-78
2021/01/01 13:36:15;;;;;;;31.70;13.77;;;;;;;;;;5042799;28;20753;-78
2021/01/01 13:39:40;;;;;;;34.37;14.40;;;;;;;;;;5043953;28;20251;-79
2021/01/01 13:42:49;;;;;;;34.73;13.43;;;;;;;;;;5046139;28;20231;-80
2021/01/01 13:45:54;;;;;;;31.33;13.93;;;;;;;;;;5031574;28;20269;-79
2021/01/01 13:48:59;;;;;;;28.60;13.70;;;;;;;;;;5028777;28;21129;-78
2021/01/01 13:52:05;;;;;;;29.37;12.67;;;;;;;;;;5047232;28;20219;-82
2021/01/01 13:59:05;;;;;;;27.47;12.17;;;;;;;;;;5039695;28;20192;-78
2021/01/01 14:02:16;;;;;;;27.37;11.70;;;;;;;;;;5039784;28;20204;-80
2021/01/01 14:05:21;;;;;;;24.63;11.00;;;;;;;;;;5038740;28;20216;-79
2021/01/01 14:08:27;;;;;;;24.53;10.73;;;;;;;;;;5055707;28;20180;-78
2021/01/01 14:11:32;;;;;;;29.00;11.87;;;;;;;;;;5021162;28;20263;-79
2021/01/01 14:14:39;;;;;;;28.67;11.93;;;;;;;;;;5033700;28;20216;-80
2021/01/01 14:17:44;;;;;;;56.30;21.47;;;;;;;;;;5042569;28;20246;-78
2021/01/01 14:20:48;;;;;;;29.97;12.87;;;;;;;;;;5032092;28;20272;-78
2021/01/01 14:23:57;;;;;;;31.83;13.10;;;;;;;;;;5020294;28;20601;-79
2021/01/01 14:27:01;;;;;;;33.70;14.17;;;;;;;;;;5032433;28;20243;-78
2021/01/01 14:30:08;;;;;;;29.83;12.30;;;;;;;;;;5028695;28;20350;-78
2021/01/01 14:33:12;;;;;;;29.97;11.73;;;;;;;;;;5014163;28;20231;-79
2021/01/01 14:36:18;;;;;;;29.87;13.07;;;;;;;;;;5022705;28;20211;-79
2021/01/01 14:39:22;;;;;;;29.77;12.87;;;;;;;;;;5035997;28;20270;-79
2021/01/01 14:42:29;;;;;;;31.63;13.70;;;;;;;;;;5014823;28;20286;-79
2021/01/01 14:45:34;;;;;;;30.13;12.53;;;;;;;;;;5017271;28;20211;-79
2021/01/01 14:48:39;;;;;;;32.80;13.10;;;;;;;;;;5015381;28;20277;-78
2021/01/01 14:51:44;;;;;;;31.93;13.37;;;;;;;;;;5016626;28;20242;-78
2021/01/01 14:54:49;;;;;;;27.87;12.83;;;;;;;;;;5014809;28;20359;-78
2021/01/01 14:57:53;;;;;;;29.30;13.53;;;;;;;;;;5016111;28;20622;-78
2021/01/01 15:00:59;;;;;;;33.00;13.93;;;;;;;;;;5031945;28;20289;-78
2021/01/01 15:04:03;;;;;;;33.67;14.77;;;;;;;;;;5015466;28;20700;-80
2021/01/01 15:07:08;;;;;;;37.03;16.47;;;;;;;;;;5018632;28;20236;-77
2021/01/01 15:10:13;;;;;;;35.50;15.43;;;;;;;;;;5029909;28;20616;-77
2021/01/01 15:13:17;;;;;;;35.90;15.33;;;;;;;;;;5038272;28;20207;-78
2021/01/01 15:16:23;;;;;;;30.43;14.37;;;;;;;;;;5038281;28;20199;-79
2021/01/01 15:19:34;;;;;;;32.43;14.00;;;;;;;;;;5034635;28;20303;-80
2021/01/01 15:22:45;;;;;;;35.73;14.50;;;;;;;;;;5021388;28;20268;-79
2021/01/01 15:25:49;;;;;;;39.67;15.90;;;;;;;;;;5034368;28;20204;-78
2021/01/01 15:28:54;;;;;;;46.80;17.00;;;;;;;;;;5042048;28;20223;-78
2021/01/01 15:31:59;;;;;;;34.60;15.50;;;;;;;;;;5036336;28;20251;-79
2021/01/01 15:35:04;;;;;;;31.43;13.87;;;;;;;;;;5033864;28;20273;-80
2021/01/01 15:38:09;;;;;;;38.60;15.60;;;;;;;;;;5046800;28;20203;-79
2021/01/01 15:41:14;;;;;;;40.40;16.63;;;;;;;;;;5033636;28;20238;-80
2021/01/01 15:44:19;;;;;;;40.27;16.03;;;;;;;;;;5050606;28;20314;-79
2021/01/01 15:47:24;;;;;;;46.73;17.90;;;;;;;;;;5050383;28;20307;-80
2021/01/01 15:50:30;;;;;;;47.30;19.93;;;;;;;;;;5051162;28;20682;-79
2021/01/01 15:53:34;;;;;;;38.50;17.03;;;;;;;;;;5023643;28;20211;-78
2021/01/01 15:56:39;;;;;;;48.37;18.10;;;;;;;;;;5030223;28;20246;-81
2021/01/01 15:59:44;;;;;;;51.97;21.17;;;;;;;;;;5032582;28;20609;-79
2021/01/01 16:02:49;;;;;;;43.60;18.63;;;;;;;;;;5045564;28;20235;-79
2021/01/01 16:05:54;;;;;;;46.37;19.03;;;;;;;;;;5028634;28;20214;-80
2021/01/01 16:08:59;;;;;;;45.87;19.07;;;;;;;;;;5041900;28;20646;-80
2021/01/01 16:12:04;;;;;;;44.17;18.60;;;;;;;;;;5024565;28;20219;-81
2021/01/01 16:15:23;;;;;;;43.70;18.23;;;;;;;;;;5063877;28;20219;-81
2021/01/01 16:18:53;;;;;;;52.73;20.70;;;;;;;;;;5057404;28;20195;-81
2021/01/01 16:21:59;;;;;;;50.83;20.83;;;;;;;;;;5072133;28;20226;-80
2021/01/01 16:25:04;;;;;;;54.97;21.47;;;;;;;;;;5057730;28;20194;-79
2021/01/01 16:28:09;;;;;;;77.23;28.00;;;;;;;;;;5049893;28;20215;-79
2021/01/01 16:31:13;;;;;;;84.70;33.97;;;;;;;;;;5032811;28;20282;-80
2021/01/01 16:34:20;;;;;;;80.70;28.73;;;;;;;;;;5041415;28;20211;-80
2021/01/01 16:37:26;;;;;;;67.13;26.90;;;;;;;;;;5030345;28;20208;-79
2021/01/01 16:40:30;;;;;;;62.83;24.07;;;;;;;;;;5033814;28;20203;-79
2021/01/01 16:43:35;;;;;;;60.93;24.17;;;;;;;;;;5053812;28;20198;-79
2021/01/01 16:46:41;;;;;;;56.17;21.57;;;;;;;;;;5039369;28;20362;-78
2021/01/01 16:49:46;;;;;;;60.97;22.33;;;;;;;;;;5036273;28;20203;-79
2021/01/01 16:52:51;;;;;;;53.73;22.43;;;;;;;;;;5046157;28;20243;-79
2021/01/01 16:55:56;;;;;;;53.60;21.87;;;;;;;;;;5041365;28;20196;-79
2021/01/01 16:59:01;;;;;;;57.93;22.33;;;;;;;;;;5039204;28;20223;-79
2021/01/01 17:02:06;;;;;;;66.87;24.83;;;;;;;;;;5040090;28;20266;-79
2021/01/01 17:05:11;;;;;;;63.27;23.43;;;;;;;;;;5039654;28;20188;-78
2021/01/01 17:08:16;;;;;;;60.73;23.97;;;;;;;;;;5021052;28;20212;-79
2021/01/01 17:11:21;;;;;;;65.03;24.57;;;;;;;;;;5034532;28;20247;-79
2021/01/01 17:14:26;;;;;;;63.67;24.17;;;;;;;;;;5025929;28;20247;-78
2021/01/01 17:17:34;;;;;;;60.23;23.97;;;;;;;;;;5031885;28;20288;-79
2021/01/01 17:20:39;;;;;;;56.90;20.67;;;;;;;;;;5035773;28;20231;-79
2021/01/01 17:23:45;;;;;;;48.03;19.83;;;;;;;;;;5037574;28;20211;-79
2021/01/01 17:26:51;;;;;;;51.30;19.17;;;;;;;;;;5051335;28;20219;-78
2021/01/01 17:29:56;;;;;;;59.57;20.70;;;;;;;;;;5035196;28;20198;-79
2021/01/01 17:33:00;;;;;;;55.07;20.13;;;;;;;;;;5039167;28;20735;-78
2021/01/01 17:36:06;;;;;;;58.73;22.73;;;;;;;;;;5038122;28;20594;-79
2021/01/01 17:39:11;;;;;;;55.67;21.93;;;;;;;;;;5048624;28;20226;-78
2021/01/01 17:42:16;;;;;;;60.27;23.17;;;;;;;;;;5042927;28;20231;-79
2021/01/01 17:45:21;;;;;;;54.03;21.50;;;;;;;;;;5038002;28;20330;-79
2021/01/01 17:48:26;;;;;;;67.50;23.10;;;;;;;;;;5035785;28;20208;-79
2021/01/01 17:51:31;;;;;;;59.10;22.10;;;;;;;;;;5024702;28;20259;-80
2021/01/01 17:54:37;;;;;;;63.53;24.57;;;;;;;;;;5034112;28;20971;-79
2021/01/01 17:57:44;;;;;;;60.77;23.07;;;;;;;;;;5019080;28;20212;-80
2021/01/01 18:00:50;;;;;;;62.87;23.50;;;;;;;;;;5032013;28;20750;-80
2021/01/01 18:03:55;;;;;;;69.23;25.50;;;;;;;;;;5039265;28;20241;-80
2021/01/01 18:07:00;;;;;;;72.90;24.87;;;;;;;;;;5048951;28;20224;-80
2021/01/01 18:10:06;;;;;;;69.67;25.27;;;;;;;;;;5031659;28;20568;-80
2021/01/01 18:13:11;;;;;;;63.93;23.07;;;;;;;;;;5018404;28;20363;-80
2021/01/01 18:16:19;;;;;;;65.60;22.20;;;;;;;;;;5046218;28;20219;-81
2021/01/01 18:19:24;;;;;;;64.03;23.40;;;;;;;;;;5049148;28;20269;-81
2021/01/01 18:22:33;;;;;;;68.80;24.13;;;;;;;;;;5043792;28;20223;-80
2021/01/01 18:25:39;;;;;;;60.57;23.67;;;;;;;;;;5056319;28;20215;-81
2021/01/01 18:28:46;;;;;;;69.93;24.10;;;;;;;;;;5059269;28;20275;-79
2021/01/01 18:31:51;;;;;;;63.67;23.37;;;;;;;;;;5059039;28;20276;-79
2021/01/01 18:35:02;;;;;;;61.33;22.43;;;;;;;;;;5047345;28;20197;-80
2021/01/01 18:38:10;;;;;;;74.27;25.97;;;;;;;;;;5040191;28;20187;-79
2021/01/01 18:41:16;;;;;;;72.53;28.23;;;;;;;;;;5058569;28;20219;-78
2021/01/01 18:44:23;;;;;;;75.67;27.40;;;;;;;;;;5059142;28;20199;-77
2021/01/01 18:47:34;;;;;;;68.30;26.10;;;;;;;;;;5057609;28;20235;-80
2021/01/01 18:50:42;;;;;;;69.50;26.43;;;;;;;;;;5043883;28;20191;-78
2021/01/01 18:53:56;;;;;;;116.00;35.27;;;;;;;;;;5018657;28;20212;-78
2021/01/01 18:57:12;;;;;;;66.23;24.97;;;;;;;;;;5018905;28;20247;-81
2021/01/01 19:00:17;;;;;;;61.80;24.67;;;;;;;;;;5043840;28;20222;-80
2021/01/01 19:03:40;;;;;;;61.37;24.07;;;;;;;;;;5043639;28;20211;-82
2021/01/01 19:07:02;;;;;;;59.83;21.57;;;;;;;;;;5026848;28;20706;-80
2021/01/01 19:10:08;;;;;;;62.23;24.73;;;;;;;;;;5022789;28;20271;-80
2021/01/01 19:13:14;;;;;;;66.03;25.90;;;;;;;;;;5017569;28;20231;-81
2021/01/01 19:16:22;;;;;;;75.13;25.10;;;;;;;;;;5018671;28;20232;-80